LDSP/SPU METAR and TAF weather

Enter ICAO airport designator
Station Type Date Time Source
LDSP METAR 2019/10/22 16:00 UTC NOAA

LDSP 221600Z 22003KT CAVOK 20/18 Q1021 NOSIG


Station Type Date Time Source
LDSP Decoded METAR 2019/10/22 16:00 UTC NOAA

Split / Resnik, Croatia (LDSP) 43-32N 016-18E 21M
Oct 22, 2019 - 12:00 PM EDT / 2019.10.22 1600 UTC
Wind: from the SW (220 degrees) at 3 MPH (3 KT):0
Visibility: greater than 7 mile(s):0
Temperature: 68 F (20 C)
Dew Point: 64 F (18 C)
Relative Humidity: 88%
Pressure (altimeter): 30.15 in. Hg (1021 hPa)
ob: LDSP 221600Z 22003KT CAVOK 20/18 Q1021 NOSIG
cycle: 16

Station Type Date Time Source
LDSP TAF 2019/10/22 12:27 UTC NOAA

TAF LDSP 221125Z 2212/2312 VRB02KT CAVOK TX25/2212Z TN13/2305Z PROB40
TEMPO 2212/2216 23007KT

Example: see airport list